Time;durP1;ratioP1;P1;durP2;ratioP2;P2;SDS_P1;SDS_P2;PMS_P1;PMS_P2;Temp;Humidity;BMP_temperature;BMP_pressure;BME280_temperature;BME280_humidity;BME280_pressure;Samples;Min_cycle;Max_cycle;Signal;HPM_P1;HPM_P2
2023/05/12 00:01:23;;;;;;;1.70;1.60;;;13.50;73.50;;;;;;5037296;28;20575;-64
2023/05/12 00:03:48;;;;;;;1.65;1.55;;;13.50;73.40;;;;;;5034669;28;20337;-66
2023/05/12 00:06:14;;;;;;;1.92;1.80;;;13.50;73.40;;;;;;5036661;28;20033;-65
2023/05/12 00:08:40;;;;;;;3.80;1.73;;;13.50;73.50;;;;;;5034879;28;20084;-65
2023/05/12 00:11:05;;;;;;;1.92;1.83;;;13.50;73.60;;;;;;5037853;28;20032;-65
2023/05/12 00:13:31;;;;;;;9.50;1.80;;;13.50;73.50;;;;;;5032045;28;20121;-65
2023/05/12 00:15:57;;;;;;;4.07;1.80;;;13.50;73.50;;;;;;5044737;28;20025;-65
2023/05/12 00:18:24;;;;;;;3.15;1.60;;;13.50;73.40;;;;;;5042363;28;20028;-65
2023/05/12 00:20:50;;;;;;;1.63;1.40;;;13.50;73.60;;;;;;5036467;28;20039;-64
2023/05/12 00:23:16;;;;;;;2.72;1.50;;;13.50;73.60;;;;;;5018262;28;20033;-64
2023/05/12 00:25:41;;;;;;;7.18;1.50;;;13.50;73.70;;;;;;5039193;28;20022;-65
2023/05/12 00:28:07;;;;;;;3.95;1.33;;;13.50;73.60;;;;;;5035373;28;20048;-64
2023/05/12 00:30:33;;;;;;;10.07;1.80;;;13.50;73.60;;;;;;5024062;28;20112;-65
2023/05/12 00:32:58;;;;;;;4.57;1.60;;;13.50;73.60;;;;;;5037053;28;20037;-64
2023/05/12 00:35:24;;;;;;;4.20;1.73;;;13.50;73.60;;;;;;5036688;28;20194;-64
2023/05/12 00:37:50;;;;;;;10.32;1.75;;;13.50;73.60;;;;;;5033748;28;20102;-64
2023/05/12 00:40:15;;;;;;;4.63;1.60;;;13.50;73.60;;;;;;4930866;28;20080;-64
2023/05/12 00:42:42;;;;;;;1.98;1.70;;;13.50;73.60;;;;;;5019155;28;20029;-66
2023/05/12 00:45:08;;;;;;;2.67;1.58;;;13.50;73.50;;;;;;5032549;28;20026;-64
2023/05/12 00:47:34;;;;;;;1.60;1.50;;;13.50;73.50;;;;;;5030959;28;20026;-65
2023/05/12 00:50:02;;;;;;;9.80;1.73;;;13.50;73.50;;;;;;5030039;28;20039;-66
2023/05/12 00:52:30;;;;;;;8.90;2.28;;;13.50;73.60;;;;;;5037164;28;20119;-65
2023/05/12 00:54:56;;;;;;;1.70;1.60;;;13.50;73.60;;;;;;5033164;28;20041;-65
2023/05/12 00:57:26;;;;;;;2.92;1.50;;;13.50;73.60;;;;;;5035622;28;20048;-64
2023/05/12 00:59:53;;;;;;;3.67;1.70;;;13.50;73.50;;;;;;5032217;28;20117;-65
2023/05/12 01:02:19;;;;;;;4.07;1.73;;;13.50;73.40;;;;;;5036260;28;20125;-64
2023/05/12 01:04:45;;;;;;;1.92;1.70;;;13.40;73.30;;;;;;5034049;28;20036;-64
2023/05/12 01:07:23;;;;;;;3.35;1.60;;;13.40;73.50;;;;;;5035183;28;20071;-64
2023/05/12 01:09:55;;;;;;;2.05;1.85;;;13.40;73.90;;;;;;5035127;28;20435;-66
2023/05/12 01:12:25;;;;;;;2.00;1.60;;;13.40;74.10;;;;;;5014941;28;20037;-64
2023/05/12 01:14:53;;;;;;;4.85;1.90;;;13.40;73.70;;;;;;5032095;28;20095;-64
2023/05/12 01:17:34;;;;;;;4.68;1.75;;;13.40;73.70;;;;;;5032577;28;20021;-63
2023/05/12 01:20:03;;;;;;;3.35;1.90;;;13.40;73.60;;;;;;5028329;28;20034;-64
2023/05/12 01:22:30;;;;;;;1.73;1.50;;;13.40;73.60;;;;;;5036055;28;20026;-64
2023/05/12 01:25:04;;;;;;;4.40;1.60;;;13.40;73.80;;;;;;5030417;28;20033;-63
2023/05/12 01:27:31;;;;;;;2.35;1.80;;;13.30;74.00;;;;;;5031214;28;20037;-64
2023/05/12 01:30:02;;;;;;;1.77;1.42;;;13.40;73.80;;;;;;5017505;28;20125;-65
2023/05/12 01:32:29;;;;;;;6.65;1.60;;;13.30;73.90;;;;;;5032700;28;20329;-64
2023/05/12 01:34:55;;;;;;;3.05;1.67;;;13.30;74.50;;;;;;5032658;28;20044;-64
2023/05/12 01:37:20;;;;;;;4.03;1.90;;;13.40;73.90;;;;;;5031292;28;20033;-64
2023/05/12 01:39:46;;;;;;;2.90;1.98;;;13.30;73.80;;;;;;5030443;28;20128;-64
2023/05/12 01:42:12;;;;;;;3.67;1.70;;;13.40;73.90;;;;;;4933730;28;20029;-64
2023/05/12 01:44:38;;;;;;;1.90;1.80;;;13.40;74.00;;;;;;5034174;28;20098;-64
2023/05/12 01:47:03;;;;;;;1.83;1.73;;;13.40;74.10;;;;;;5010730;28;20022;-64
2023/05/12 01:49:29;;;;;;;3.72;1.73;;;13.40;74.20;;;;;;5018894;28;20270;-65
2023/05/12 01:51:55;;;;;;;2.20;1.83;;;13.40;74.00;;;;;;5027267;28;20392;-66
2023/05/12 01:54:20;;;;;;;2.38;1.70;;;13.40;73.90;;;;;;5034688;28;20064;-64
2023/05/12 01:56:46;;;;;;;1.70;1.60;;;13.40;73.90;;;;;;5033402;28;20032;-64
2023/05/12 01:59:12;;;;;;;2.90;2.00;;;13.40;73.80;;;;;;5035903;28;20032;-63
2023/05/12 02:01:37;;;;;;;2.17;1.80;;;13.40;73.70;;;;;;5014045;28;20079;-64
2023/05/12 02:04:03;;;;;;;2.95;1.63;;;13.40;73.60;;;;;;5014555;28;20094;-65
2023/05/12 02:06:30;;;;;;;3.47;1.85;;;13.40;73.70;;;;;;5013026;28;20036;-64
2023/05/12 02:08:56;;;;;;;4.85;1.75;;;13.40;73.80;;;;;;5035426;28;20531;-65
2023/05/12 02:11:22;;;;;;;2.10;1.92;;;13.40;73.90;;;;;;5033871;28;20035;-65
2023/05/12 02:13:47;;;;;;;3.30;1.70;;;13.40;74.10;;;;;;5034408;28;20093;-65
2023/05/12 02:16:13;;;;;;;5.57;1.90;;;13.40;74.00;;;;;;5033599;28;20214;-64
2023/05/12 02:18:39;;;;;;;3.45;1.63;;;13.40;73.90;;;;;;5035740;28;20025;-64
2023/05/12 02:21:05;;;;;;;5.05;1.75;;;13.40;74.00;;;;;;5035231;28;20415;-64
2023/05/12 02:23:30;;;;;;;1.70;1.60;;;13.40;73.90;;;;;;5030027;28;20768;-65
2023/05/12 02:25:56;;;;;;;5.40;2.15;;;13.40;73.90;;;;;;5033535;28;20041;-65
2023/05/12 02:28:22;;;;;;;5.78;2.10;;;13.40;74.00;;;;;;5039331;28;20033;-63
2023/05/12 02:30:49;;;;;;;1.75;1.65;;;13.40;74.00;;;;;;5035637;28;20579;-64
2023/05/12 02:33:18;;;;;;;2.85;1.98;;;13.40;74.10;;;;;;5035256;28;20042;-64
2023/05/12 02:35:44;;;;;;;2.38;1.77;;;13.40;74.10;;;;;;5034562;28;20045;-63
2023/05/12 02:38:10;;;;;;;2.90;1.77;;;13.40;74.10;;;;;;5036430;28;20032;-64
2023/05/12 02:40:36;;;;;;;4.55;1.70;;;13.40;74.30;;;;;;5032822;28;20059;-65
2023/05/12 02:43:01;;;;;;;1.85;1.75;;;13.40;74.30;;;;;;5031092;28;20089;-64
2023/05/12 02:45:27;;;;;;;3.47;1.80;;;13.40;74.30;;;;;;5034687;28;20201;-65
2023/05/12 02:47:53;;;;;;;2.25;2.00;;;13.40;74.40;;;;;;5035923;28;20469;-63
2023/05/12 02:50:20;;;;;;;2.03;1.83;;;13.40;74.30;;;;;;5016845;28;20119;-64
2023/05/12 02:52:46;;;;;;;2.65;1.88;;;13.50;74.20;;;;;;5036287;28;20033;-66
2023/05/12 02:55:12;;;;;;;2.72;1.95;;;13.50;74.00;;;;;;5046372;28;20116;-65
2023/05/12 02:57:38;;;;;;;3.45;2.17;;;13.50;74.00;;;;;;5029965;28;20056;-64
2023/05/12 03:00:05;;;;;;;5.07;1.85;;;13.50;74.00;;;;;;5033646;28;20036;-67
2023/05/12 03:02:36;;;;;;;4.70;2.15;;;13.50;74.10;;;;;;5031268;28;20033;-65
2023/05/12 03:05:02;;;;;;;2.17;1.88;;;13.40;74.00;;;;;;5035585;28;20030;-63
2023/05/12 03:07:28;;;;;;;2.72;2.28;;;13.50;74.00;;;;;;5035331;28;20037;-65
2023/05/12 03:09:54;;;;;;;2.50;2.30;;;13.50;74.10;;;;;;5034520;28;20036;-64
2023/05/12 03:12:20;;;;;;;2.28;2.10;;;13.50;74.00;;;;;;5030511;28;20044;-66
2023/05/12 03:14:45;;;;;;;2.97;2.55;;;13.50;73.90;;;;;;5034882;28;20128;-64
2023/05/12 03:17:11;;;;;;;2.40;2.20;;;13.40;74.00;;;;;;5033406;28;20366;-63
2023/05/12 03:19:37;;;;;;;3.53;2.20;;;13.50;74.10;;;;;;5034577;28;20033;-64
2023/05/12 03:22:03;;;;;;;2.40;2.20;;;13.50;74.20;;;;;;5034431;28;20032;-63
2023/05/12 03:24:29;;;;;;;4.57;2.53;;;13.50;74.30;;;;;;5034519;28;20039;-65
2023/05/12 03:26:55;;;;;;;3.58;2.63;;;13.50;74.40;;;;;;5033842;28;20128;-65
2023/05/12 03:29:21;;;;;;;3.33;2.70;;;13.50;74.40;;;;;;5035478;28;20041;-63
2023/05/12 03:31:46;;;;;;;2.53;2.30;;;13.50;74.40;;;;;;5035146;28;20104;-64
2023/05/12 03:34:12;;;;;;;5.45;2.60;;;13.50;74.50;;;;;;5032269;28;20195;-65
2023/05/12 03:36:39;;;;;;;2.70;2.42;;;13.50;74.40;;;;;;5033698;28;20040;-64
2023/05/12 03:39:07;;;;;;;3.47;2.60;;;13.50;74.40;;;;;;5033288;28;20128;-64
2023/05/12 03:41:33;;;;;;;2.88;2.67;;;13.60;74.40;;;;;;4929179;28;20037;-64
2023/05/12 03:43:59;;;;;;;2.28;2.08;;;13.60;74.40;;;;;;5034986;28;20037;-63
2023/05/12 03:46:24;;;;;;;2.72;2.08;;;13.60;74.30;;;;;;5036181;28;20033;-64
2023/05/12 03:48:50;;;;;;;4.70;2.45;;;13.60;74.20;;;;;;5035629;28;20038;-65
2023/05/12 03:51:15;;;;;;;4.97;2.50;;;13.60;74.10;;;;;;5037686;28;20040;-64
2023/05/12 03:53:44;;;;;;;4.47;2.80;;;13.60;74.20;;;;;;5031446;28;20076;-64
2023/05/12 03:56:10;;;;;;;2.85;2.55;;;13.50;74.20;;;;;;5034893;28;20080;-64
2023/05/12 03:58:35;;;;;;;3.70;2.63;;;13.50;74.20;;;;;;5035887;28;20030;-64
2023/05/12 04:01:01;;;;;;;4.40;2.55;;;13.50;74.20;;;;;;5034848;28;20116;-64
2023/05/12 04:03:30;;;;;;;7.07;3.05;;;13.50;74.20;;;;;;5033141;28;20029;-65
2023/05/12 04:06:00;;;;;;;2.60;2.40;;;13.50;74.30;;;;;;5034693;28;20049;-64
2023/05/12 04:08:26;;;;;;;4.22;2.40;;;13.50;74.60;;;;;;5034432;28;20056;-64
2023/05/12 04:10:56;;;;;;;4.75;2.40;;;13.50;74.40;;;;;;5037001;28;20033;-63
2023/05/12 04:13:22;;;;;;;3.80;3.05;;;13.50;74.40;;;;;;5035720;28;20101;-63
2023/05/12 04:15:48;;;;;;;4.80;2.90;;;13.50;74.40;;;;;;5037569;28;20071;-63
2023/05/12 04:18:14;;;;;;;7.55;2.40;;;13.50;74.40;;;;;;5035273;28;20021;-64
2023/05/12 04:20:40;;;;;;;3.65;2.40;;;13.50;74.50;;;;;;5039497;28;20040;-64
2023/05/12 04:23:05;;;;;;;3.50;2.50;;;13.50;74.60;;;;;;5012563;28;20112;-65
2023/05/12 04:25:31;;;;;;;3.08;2.40;;;13.50;74.70;;;;;;5036477;28;20085;-64
2023/05/12 04:27:57;;;;;;;2.83;2.40;;;13.50;74.80;;;;;;5036467;28;20041;-64
2023/05/12 04:30:23;;;;;;;4.35;2.30;;;13.60;74.80;;;;;;5037841;28;20066;-64
2023/05/12 04:32:48;;;;;;;3.97;2.20;;;13.60;74.70;;;;;;5037092;28;20411;-65
2023/05/12 04:35:14;;;;;;;2.67;2.05;;;13.60;74.70;;;;;;5037876;28;20049;-64
2023/05/12 04:37:40;;;;;;;5.53;2.25;;;13.60;74.90;;;;;;5035619;28;20088;-64
2023/05/12 04:40:07;;;;;;;5.53;2.03;;;13.60;74.90;;;;;;5036610;28;20065;-65
2023/05/12 04:42:33;;;;;;;3.20;1.95;;;13.60;75.00;;;;;;4948878;28;20021;-64
2023/05/12 04:44:59;;;;;;;3.55;2.15;;;13.70;75.00;;;;;;5036234;28;20037;-65
2023/05/12 04:47:25;;;;;;;3.50;2.20;;;13.70;75.00;;;;;;5037561;28;20407;-64
2023/05/12 04:49:50;;;;;;;2.50;2.03;;;13.70;74.90;;;;;;5031416;28;20079;-64
2023/05/12 04:52:16;;;;;;;5.53;2.22;;;13.70;74.90;;;;;;5037178;28;20029;-64
2023/05/12 04:54:42;;;;;;;5.20;2.65;;;13.70;74.90;;;;;;5033357;28;20412;-65
2023/05/12 04:57:08;;;;;;;3.17;2.30;;;13.70;74.80;;;;;;5037316;28;20045;-64
2023/05/12 04:59:34;;;;;;;2.78;2.42;;;13.70;74.60;;;;;;5036298;28;20047;-63
2023/05/12 05:02:00;;;;;;;2.88;2.05;;;13.80;74.70;;;;;;5037860;28;20025;-65
2023/05/12 05:04:26;;;;;;;2.50;2.30;;;13.80;74.70;;;;;;5034492;28;20040;-64
2023/05/12 05:06:54;;;;;;;5.05;2.55;;;13.80;74.80;;;;;;5037031;28;20085;-63
2023/05/12 05:09:20;;;;;;;3.58;2.80;;;13.80;74.80;;;;;;5035116;28;20030;-64
2023/05/12 05:11:46;;;;;;;2.80;2.45;;;13.80;74.70;;;;;;5036566;28;20033;-64
2023/05/12 05:14:11;;;;;;;7.40;2.65;;;13.80;74.70;;;;;;5033973;28;20132;-65
2023/05/12 05:16:37;;;;;;;2.85;2.55;;;13.80;74.60;;;;;;5038286;28;20634;-65
2023/05/12 05:19:03;;;;;;;4.00;2.85;;;13.80;74.60;;;;;;5033943;28;20040;-65
2023/05/12 05:21:29;;;;;;;3.28;2.97;;;13.80;74.70;;;;;;5035706;28;20099;-64
2023/05/12 05:23:54;;;;;;;3.22;2.92;;;13.80;74.70;;;;;;5018721;28;20092;-63
2023/05/12 05:26:20;;;;;;;3.15;2.88;;;13.90;74.80;;;;;;5036879;28;20060;-64
2023/05/12 05:28:46;;;;;;;3.17;2.28;;;13.90;74.80;;;;;;5030453;28;20033;-66
2023/05/12 05:31:16;;;;;;;2.30;1.70;;;13.90;74.60;;;;;;5035086;28;20032;-65
2023/05/12 05:33:43;;;;;;;2.05;1.85;;;13.90;74.10;;;;;;5036425;28;20029;-65
2023/05/12 05:36:09;;;;;;;2.00;1.80;;;13.90;73.80;;;;;;5035552;28;20102;-65
2023/05/12 05:38:35;;;;;;;2.55;2.30;;;13.90;73.90;;;;;;5016566;28;20029;-66
2023/05/12 05:41:00;;;;;;;3.67;1.95;;;13.90;74.10;;;;;;4949232;28;20088;-64
2023/05/12 05:43:26;;;;;;;2.75;2.35;;;13.90;74.20;;;;;;5036888;28;20032;-65
2023/05/12 05:45:52;;;;;;;2.97;2.38;;;13.90;74.30;;;;;;5042761;28;20029;-64
2023/05/12 05:48:18;;;;;;;4.57;2.95;;;13.90;74.20;;;;;;5021064;28;20056;-63
2023/05/12 05:50:44;;;;;;;3.10;2.72;;;13.90;74.20;;;;;;5034575;28;20025;-63
2023/05/12 05:53:10;;;;;;;5.55;2.30;;;14.00;74.10;;;;;;5037442;28;20095;-63
2023/05/12 05:55:35;;;;;;;3.00;2.35;;;14.00;74.20;;;;;;5033805;28;20094;-64
2023/05/12 05:58:01;;;;;;;3.72;2.17;;;14.00;74.10;;;;;;5034716;28;20040;-65
2023/05/12 06:00:27;;;;;;;6.03;2.70;;;14.00;74.00;;;;;;5011702;28;20468;-64
2023/05/12 06:02:52;;;;;;;3.35;2.70;;;14.10;74.20;;;;;;5036143;28;20033;-67
2023/05/12 06:05:18;;;;;;;3.03;2.30;;;14.10;74.30;;;;;;5035122;28;20034;-67
2023/05/12 06:07:44;;;;;;;5.65;2.60;;;14.10;74.30;;;;;;5035617;28;20033;-66
2023/05/12 06:10:10;;;;;;;5.15;2.47;;;14.10;74.50;;;;;;5034926;28;20449;-67
2023/05/12 06:12:35;;;;;;;3.72;2.90;;;14.20;74.40;;;;;;5031430;28;20597;-67
2023/05/12 06:15:03;;;;;;;3.20;2.70;;;14.20;74.20;;;;;;5035160;28;20096;-66
2023/05/12 06:17:28;;;;;;;2.80;2.50;;;14.20;74.40;;;;;;5036550;28;20710;-68
2023/05/12 06:19:54;;;;;;;2.88;2.50;;;14.20;74.40;;;;;;5035301;28;20037;-67
2023/05/12 06:22:20;;;;;;;2.05;1.95;;;14.20;74.40;;;;;;5034041;28;20085;-68
2023/05/12 06:24:45;;;;;;;3.60;2.50;;;14.30;74.50;;;;;;5037270;28;20037;-67
2023/05/12 06:27:11;;;;;;;2.28;2.10;;;14.30;74.30;;;;;;5029267;28;20030;-67
2023/05/12 06:29:37;;;;;;;3.47;2.38;;;14.30;74.40;;;;;;5034736;28;20431;-66
2023/05/12 06:32:03;;;;;;;2.90;2.55;;;14.40;74.60;;;;;;5032797;28;20025;-67
2023/05/12 06:34:28;;;;;;;2.72;2.40;;;14.50;74.30;;;;;;5035608;28;20037;-66
2023/05/12 06:36:54;;;;;;;3.17;2.60;;;14.50;74.10;;;;;;5032455;28;20504;-66
2023/05/12 06:39:20;;;;;;;4.07;2.70;;;14.50;74.10;;;;;;5027095;28;20034;-65
2023/05/12 06:41:45;;;;;;;3.17;2.72;;;14.60;74.30;;;;;;4969030;28;20022;-67
2023/05/12 06:44:12;;;;;;;3.17;2.80;;;14.70;74.40;;;;;;5034524;28;20060;-68
2023/05/12 06:46:41;;;;;;;4.32;2.70;;;14.80;74.50;;;;;;5034316;28;20056;-68
2023/05/12 06:49:07;;;;;;;4.28;2.90;;;14.80;74.40;;;;;;5035183;28;20044;-68
2023/05/12 06:51:33;;;;;;;3.22;2.80;;;14.90;74.20;;;;;;5031828;28;20105;-67
2023/05/12 06:53:59;;;;;;;3.13;2.83;;;15.00;73.70;;;;;;5034676;28;20049;-66
2023/05/12 06:56:25;;;;;;;4.50;3.45;;;15.10;73.40;;;;;;5033748;28;20033;-68
2023/05/12 06:58:51;;;;;;;4.65;3.38;;;15.20;73.10;;;;;;5033652;28;20384;-66
2023/05/12 07:01:17;;;;;;;3.83;3.10;;;15.20;72.80;;;;;;5031163;28;20462;-67
2023/05/12 07:03:42;;;;;;;2.92;2.67;;;15.30;72.60;;;;;;5034315;28;20092;-68
2023/05/12 07:06:08;;;;;;;3.10;2.80;;;15.30;72.30;;;;;;5033753;28;20045;-65
2023/05/12 07:08:34;;;;;;;3.42;2.95;;;15.30;72.00;;;;;;5033484;28;20033;-66
2023/05/12 07:11:00;;;;;;;5.53;3.03;;;15.30;71.80;;;;;;5014761;28;20029;-68
2023/05/12 07:13:26;;;;;;;3.85;3.33;;;15.40;71.80;;;;;;5030926;28;20049;-66
2023/05/12 07:15:52;;;;;;;4.85;3.70;;;15.40;71.90;;;;;;5035168;28;20048;-67
2023/05/12 07:18:18;;;;;;;4.53;3.25;;;15.40;72.00;;;;;;5033496;28;20033;-69
2023/05/12 07:20:45;;;;;;;4.78;3.30;;;15.40;72.30;;;;;;5027811;28;20044;-66
2023/05/12 07:23:11;;;;;;;4.47;3.55;;;15.50;72.60;;;;;;5031541;28;20096;-67
2023/05/12 07:25:38;;;;;;;3.75;3.20;;;15.60;72.50;;;;;;5034318;28;20021;-66
2023/05/12 07:28:04;;;;;;;5.53;2.70;;;15.70;72.10;;;;;;5032923;28;20037;-65
2023/05/12 07:30:29;;;;;;;3.75;2.90;;;15.70;71.30;;;;;;5031259;28;20030;-67
2023/05/12 07:32:56;;;;;;;2.85;2.63;;;15.80;70.70;;;;;;5030243;28;20027;-67
2023/05/12 07:35:22;;;;;;;2.97;2.67;;;15.90;70.70;;;;;;5033153;28;20064;-66
2023/05/12 07:37:48;;;;;;;4.68;2.83;;;15.90;70.50;;;;;;5027793;28;20026;-65
2023/05/12 07:40:13;;;;;;;3.28;2.97;;;15.90;70.10;;;;;;4977645;28;20033;-66
2023/05/12 07:42:39;;;;;;;2.92;2.45;;;15.90;70.10;;;;;;5029053;28;20033;-66
2023/05/12 07:45:05;;;;;;;2.75;2.50;;;16.00;70.60;;;;;;5033373;28;20093;-67
2023/05/12 07:47:31;;;;;;;3.67;2.50;;;16.00;70.60;;;;;;5036320;28;20124;-67
2023/05/12 07:49:57;;;;;;;3.20;2.83;;;16.10;70.30;;;;;;5032573;28;20069;-66
2023/05/12 07:52:23;;;;;;;2.70;2.50;;;16.20;70.20;;;;;;5036972;28;20380;-66
2023/05/12 07:54:49;;;;;;;2.55;2.03;;;16.20;70.00;;;;;;5035010;28;20427;-66
2023/05/12 07:57:15;;;;;;;2.38;2.08;;;16.20;69.40;;;;;;5040589;28;20042;-67
2023/05/12 07:59:41;;;;;;;3.17;2.20;;;16.20;69.40;;;;;;5036964;28;20116;-66
2023/05/12 08:02:07;;;;;;;3.05;1.95;;;16.30;69.60;;;;;;5035559;28;20366;-67
2023/05/12 08:04:33;;;;;;;2.20;2.00;;;16.30;69.80;;;;;;5033388;28;20091;-66
2023/05/12 08:06:58;;;;;;;2.70;2.20;;;16.30;69.90;;;;;;5035696;28;20463;-67
2023/05/12 08:09:24;;;;;;;4.72;3.60;;;16.40;69.70;;;;;;5036642;28;20399;-66
2023/05/12 08:11:50;;;;;;;2.70;2.40;;;16.40;69.70;;;;;;5037202;28;20192;-66
2023/05/12 08:14:16;;;;;;;1.85;1.75;;;16.50;69.70;;;;;;5039027;28;20068;-68
2023/05/12 08:16:44;;;;;;;2.45;2.20;;;16.50;70.30;;;;;;5039042;28;20037;-67
2023/05/12 08:19:11;;;;;;;2.00;1.80;;;16.50;69.10;;;;;;5031667;28;20026;-68
2023/05/12 08:21:36;;;;;;;2.20;2.00;;;16.60;68.90;;;;;;5036872;28;20094;-66
2023/05/12 08:24:02;;;;;;;1.80;1.55;;;16.60;68.50;;;;;;5037343;28;20057;-66
2023/05/12 08:26:27;;;;;;;2.53;1.80;;;16.60;68.50;;;;;;5021140;28;20037;-66
2023/05/12 08:28:53;;;;;;;3.92;2.25;;;16.60;68.30;;;;;;5036568;28;20397;-66
2023/05/12 08:31:19;;;;;;;5.93;4.50;;;16.60;68.50;;;;;;5039407;28;21365;-67
2023/05/12 08:33:45;;;;;;;12.27;9.55;;;16.60;68.60;;;;;;5033858;28;20021;-66
2023/05/12 08:36:11;;;;;;;5.72;3.78;;;16.60;68.70;;;;;;5035444;28;20033;-66
2023/05/12 08:38:37;;;;;;;2.85;2.60;;;16.60;68.70;;;;;;5034264;28;20031;-66
2023/05/12 08:41:17;;;;;;;3.45;3.15;;;16.70;68.50;;;;;;4963028;28;20569;-66
2023/05/12 08:43:45;;;;;;;12.20;9.40;;;16.70;68.30;;;;;;5032886;28;20017;-67
2023/05/12 08:46:12;;;;;;;4.13;3.75;;;16.80;68.60;;;;;;5030996;28;20502;-67
2023/05/12 08:48:39;;;;;;;2.65;2.35;;;16.80;68.40;;;;;;5034210;28;20041;-65
2023/05/12 08:51:10;;;;;;;14.43;10.30;;;16.80;68.20;;;;;;5028988;28;20089;-66
2023/05/12 08:53:37;;;;;;;3.65;3.17;;;16.80;67.90;;;;;;5031909;28;20024;-65
2023/05/12 08:56:06;;;;;;;2.88;2.47;;;16.90;67.90;;;;;;5035014;28;20033;-66
2023/05/12 08:58:33;;;;;;;2.20;1.98;;;16.90;67.60;;;;;;5026872;28;20088;-67
2023/05/12 09:01:00;;;;;;;3.10;2.35;;;16.90;67.70;;;;;;5030967;28;20105;-66
2023/05/12 09:03:30;;;;;;;2.03;1.83;;;16.90;67.50;;;;;;5031917;28;20033;-65
2023/05/12 09:05:57;;;;;;;4.57;3.58;;;16.90;67.40;;;;;;5032194;28;20040;-65
2023/05/12 09:08:25;;;;;;;2.80;2.60;;;16.90;67.00;;;;;;5033666;28;20551;-65
2023/05/12 09:10:55;;;;;;;3.20;2.40;;;17.00;67.00;;;;;;5039267;28;20037;-66
2023/05/12 09:13:33;;;;;;;4.18;2.22;;;16.90;66.70;;;;;;5035699;28;20088;-66
2023/05/12 09:16:01;;;;;;;3.05;2.33;;;16.90;66.60;;;;;;5033438;28;20497;-66
2023/05/12 09:18:52;;;;;;;4.43;3.10;;;16.90;66.70;;;;;;5035717;28;20105;-65
2023/05/12 09:21:19;;;;;;;1.80;1.70;;;16.90;66.00;;;;;;5035400;28;20029;-65
2023/05/12 09:24:11;;;;;;;2.00;1.80;;;16.90;66.20;;;;;;5033201;28;20029;-65
2023/05/12 09:26:50;;;;;;;1.80;1.70;;;16.90;66.30;;;;;;5026934;28;20399;-67
2023/05/12 09:29:16;;;;;;;2.40;2.20;;;16.90;66.60;;;;;;5034872;28;20102;-65
2023/05/12 09:31:49;;;;;;;2.33;1.60;;;16.90;67.20;;;;;;5035463;28;20061;-65
2023/05/12 09:34:15;;;;;;;2.27;2.07;;;16.80;67.20;;;;;;5034386;28;20099;-66
2023/05/12 09:36:41;;;;;;;1.85;1.67;;;16.80;67.00;;;;;;5034253;28;20033;-65
2023/05/12 09:39:08;;;;;;;1.80;1.70;;;16.70;67.20;;;;;;5034397;28;20519;-64
2023/05/12 09:41:41;;;;;;;1.40;1.30;;;16.60;67.30;;;;;;4925297;28;20036;-66
2023/05/12 09:44:08;;;;;;;1.23;1.13;;;16.50;67.50;;;;;;5033072;28;20032;-65
2023/05/12 09:46:35;;;;;;;3.83;1.20;;;16.50;67.80;;;;;;5034432;28;20033;-65
2023/05/12 09:49:02;;;;;;;1.67;1.30;;;16.40;68.30;;;;;;5026953;28;20025;-65
2023/05/12 09:51:29;;;;;;;2.08;1.55;;;16.40;68.70;;;;;;5035871;28;20033;-66
2023/05/12 09:53:55;;;;;;;1.27;1.17;;;16.40;69.10;;;;;;5034553;28;20032;-65
2023/05/12 09:56:23;;;;;;;0.70;0.70;;;16.40;69.40;;;;;;5035532;28;20045;-65
2023/05/12 09:58:49;;;;;;;0.73;0.70;;;16.40;69.20;;;;;;5035059;28;20075;-65
2023/05/12 10:01:19;;;;;;;1.95;0.70;;;16.50;68.90;;;;;;5033109;28;20175;-65
2023/05/12 10:03:47;;;;;;;3.78;1.33;;;16.50;68.60;;;;;;5026835;28;20026;-67
2023/05/12 10:06:27;;;;;;;4.05;1.20;;;16.60;69.00;;;;;;5034975;28;20017;-65
2023/05/12 10:09:04;;;;;;;5.28;2.08;;;16.60;68.90;;;;;;5035667;28;20040;-66
2023/05/12 10:11:31;;;;;;;2.40;1.63;;;16.60;69.10;;;;;;5032452;28;20036;-66
2023/05/12 10:13:58;;;;;;;1.00;0.90;;;16.70;69.00;;;;;;5010537;28;20050;-66
2023/05/12 10:16:25;;;;;;;150.07;76.78;;;16.80;68.90;;;;;;5032941;28;20033;-65
2023/05/12 10:18:52;;;;;;;39.95;22.55;;;16.80;68.80;;;;;;5034338;28;20032;-65
2023/05/12 10:21:18;;;;;;;14.55;8.32;;;16.90;68.70;;;;;;5033240;28;20036;-67
2023/05/12 10:23:44;;;;;;;6.47;3.28;;;16.90;68.30;;;;;;5036402;28;20396;-66
2023/05/12 10:26:27;;;;;;;1.80;1.70;;;17.00;68.20;;;;;;5035728;28;20109;-66
2023/05/12 10:28:53;;;;;;;1.70;1.55;;;17.10;67.30;;;;;;5018531;28;20025;-67
2023/05/12 10:31:23;;;;;;;1.08;0.95;;;17.20;67.90;;;;;;5015367;28;20034;-66
2023/05/12 10:33:57;;;;;;;0.93;0.88;;;17.20;68.00;;;;;;5012965;28;20021;-67
2023/05/12 10:36:24;;;;;;;0.70;0.70;;;17.30;67.40;;;;;;5017754;28;20029;-68
2023/05/12 10:38:50;;;;;;;1.15;0.68;;;17.40;67.50;;;;;;5019808;28;20315;-67
2023/05/12 10:41:27;;;;;;;1.60;0.63;;;17.40;67.10;;;;;;4978659;28;20197;-66
2023/05/12 10:43:53;;;;;;;0.85;0.68;;;17.50;66.10;;;;;;5034333;28;20025;-67
2023/05/12 10:46:20;;;;;;;3.70;1.08;;;17.40;65.90;;;;;;5028869;28;20076;-66
2023/05/12 10:48:53;;;;;;;1.10;1.00;;;17.40;65.90;;;;;;5035167;28;20097;-67
2023/05/12 10:51:21;;;;;;;2.95;2.22;;;17.30;65.90;;;;;;5032430;28;20036;-67
2023/05/12 10:53:52;;;;;;;2.60;2.40;;;17.30;66.00;;;;;;5038369;28;20013;-67
2023/05/12 10:56:27;;;;;;;2.20;2.00;;;17.20;65.80;;;;;;5033874;28;20520;-66
2023/05/12 10:59:17;;;;;;;3.67;1.90;;;17.20;65.90;;;;;;5032514;28;20029;-67
2023/05/12 11:02:15;;;;;;;1.85;1.73;;;17.00;66.10;;;;;;5025366;28;20094;-66
2023/05/12 11:04:46;;;;;;;2.70;1.60;;;17.00;66.30;;;;;;5032507;28;20433;-67
2023/05/12 11:07:14;;;;;;;5.38;2.03;;;16.90;66.50;;;;;;5018307;28;20022;-67
2023/05/12 11:09:44;;;;;;;2.92;2.00;;;16.80;66.60;;;;;;5036904;28;20109;-66
2023/05/12 11:12:11;;;;;;;2.45;2.25;;;16.80;66.70;;;;;;5037516;28;20137;-67
2023/05/12 11:14:42;;;;;;;3.05;2.05;;;16.80;67.00;;;;;;5037286;28;20045;-67
2023/05/12 11:17:08;;;;;;;3.17;2.42;;;16.70;67.20;;;;;;5034205;28;20212;-66
2023/05/12 11:19:35;;;;;;;3.25;2.83;;;16.70;67.20;;;;;;5037756;28;20029;-66
2023/05/12 11:22:06;;;;;;;3.47;2.60;;;16.70;67.70;;;;;;5032043;28;20472;-67
2023/05/12 11:24:32;;;;;;;3.20;2.60;;;16.80;68.00;;;;;;5032245;28;20013;-67
2023/05/12 11:26:57;;;;;;;3.30;2.17;;;16.80;68.10;;;;;;5039741;28;20496;-68
2023/05/12 11:29:23;;;;;;;3.03;2.50;;;16.90;68.30;;;;;;5040111;28;20045;-66
2023/05/12 11:31:50;;;;;;;2.20;2.00;;;17.00;68.20;;;;;;5037941;28;20051;-66
2023/05/12 11:34:21;;;;;;;6.80;2.33;;;17.00;67.90;;;;;;5038603;28;20076;-66
2023/05/12 11:36:47;;;;;;;2.83;2.38;;;17.20;67.60;;;;;;5035164;28;20017;-67
2023/05/12 11:39:20;;;;;;;2.47;2.17;;;17.30;68.00;;;;;;5037080;28;20030;-66
2023/05/12 11:41:47;;;;;;;4.28;2.47;;;17.30;67.20;;;;;;5002275;28;20091;-67
2023/05/12 11:44:14;;;;;;;3.03;2.40;;;17.40;66.60;;;;;;5036311;28;20033;-66
2023/05/12 11:46:40;;;;;;;2.88;2.58;;;17.50;66.70;;;;;;5035914;28;20029;-67
2023/05/12 11:49:12;;;;;;;3.88;3.17;;;17.50;66.60;;;;;;5038578;28;20105;-65
2023/05/12 11:51:42;;;;;;;5.72;3.90;;;17.50;65.90;;;;;;5036941;28;20018;-66
2023/05/12 11:54:08;;;;;;;4.32;3.65;;;17.50;66.00;;;;;;5041611;28;20029;-66
2023/05/12 11:56:34;;;;;;;5.07;3.35;;;17.50;66.30;;;;;;5017447;28;20038;-66
2023/05/12 11:58:59;;;;;;;5.97;3.70;;;17.50;66.30;;;;;;5037693;28;20037;-65
2023/05/12 12:01:25;;;;;;;4.80;3.90;;;17.40;66.00;;;;;;5016061;28;20026;-66
2023/05/12 12:03:53;;;;;;;6.30;3.78;;;17.40;65.90;;;;;;5035715;28;20021;-65
2023/05/12 12:06:21;;;;;;;6.28;3.70;;;17.30;65.90;;;;;;5027762;28;20044;-66
2023/05/12 12:09:03;;;;;;;3.83;3.45;;;17.30;66.10;;;;;;5017901;28;20029;-66
2023/05/12 12:11:33;;;;;;;6.47;3.83;;;17.20;65.50;;;;;;5036657;28;20503;-66
2023/05/12 12:14:00;;;;;;;5.80;3.70;;;17.20;66.00;;;;;;5038001;28;20063;-67
2023/05/12 12:16:28;;;;;;;6.95;4.00;;;17.20;66.20;;;;;;5022268;28;20029;-66
2023/05/12 12:18:55;;;;;;;7.82;4.43;;;17.20;66.30;;;;;;5018213;28;20038;-67
2023/05/12 12:21:23;;;;;;;5.45;4.45;;;17.10;66.00;;;;;;5037612;28;20095;-67
2023/05/12 12:23:49;;;;;;;8.15;4.10;;;17.10;65.90;;;;;;5037391;28;20092;-67
2023/05/12 12:26:15;;;;;;;6.82;4.13;;;17.10;66.40;;;;;;5040000;28;20035;-66
2023/05/12 12:28:48;;;;;;;6.85;4.35;;;17.10;66.50;;;;;;5020793;28;20025;-67
2023/05/12 12:31:15;;;;;;;4.60;4.00;;;17.10;65.90;;;;;;5016640;28;20112;-66
2023/05/12 12:33:40;;;;;;;6.53;4.40;;;17.10;66.30;;;;;;5020415;28;20029;-66
2023/05/12 12:36:07;;;;;;;8.00;4.63;;;17.00;66.20;;;;;;5016120;28;20488;-66
2023/05/12 12:38:33;;;;;;;5.85;4.20;;;17.00;66.00;;;;;;5020555;28;20641;-66
2023/05/12 12:40:59;;;;;;;6.05;4.45;;;17.00;66.40;;;;;;5004087;28;20279;-66
2023/05/12 12:43:25;;;;;;;6.85;4.72;;;17.00;66.80;;;;;;5037194;28;20084;-67
2023/05/12 12:45:53;;;;;;;6.38;4.45;;;17.00;66.80;;;;;;5039858;28;20030;-67